This is the latest recevied weather packets stored in our database for station/object KD4WXI. If no packets are shown the sender has not sent any weather packets the latest 10 day(s).
| Time | Temp. | Humidity | Pressure | Rain* | Wind** | Luminosity | Snow |
|---|---|---|---|---|---|---|---|
| 1778037732 | 17.78° C | 62% | 1014.1 hPa | 0 mm | - | 0 W/m² | - |
| 1778037429 | 17.22° C | 63% | 1014.2 hPa | 0 mm | - | 0 W/m² | - |
| 1778037126 | 17.22° C | 61% | 1014.2 hPa | 0 mm | - | 0 W/m² | - |
| 1778036824 | 16.67° C | 63% | 1014.1 hPa | 0 mm | - | 0 W/m² | - |
| 1778036521 | 16.11° C | 66% | 1014.5 hPa | 0 mm | - | 0 W/m² | - |
| 1778036218 | 16.11° C | 67% | 1014.2 hPa | 0 mm | - | 0 W/m² | - |
| 1778035914 | 16.11° C | 66% | 1014.6 hPa | 0 mm | - | 0 W/m² | - |
| 1778035612 | 16.11° C | 66% | 1014.6 hPa | 0 mm | - | 0 W/m² | - |
| 1778035308 | 16.11° C | 68% | 1014.5 hPa | 0 mm | - | 0 W/m² | - |
| 1778035004 | 16.11° C | 67% | 1014.7 hPa | 0 mm | - | 0 W/m² | - |
| 1778034701 | 16.11° C | 68% | 1014.7 hPa | 0 mm | - | 0 W/m² | - |
| 1778034399 | 16.11° C | 69% | 1014.8 hPa | 0 mm | - | 0 W/m² | - |
| 1778034096 | 16.11° C | 70% | 1014.5 hPa | 0 mm | - | 0 W/m² | - |
| 1778033794 | 16.11° C | 71% | 1014.6 hPa | 0 mm | - | 0 W/m² | - |
| 1778033491 | 16.11° C | 70% | 1014.7 hPa | 0 mm | - | 0 W/m² | - |
| 1778033188 | 15.56° C | 70% | 1014.7 hPa | 0 mm | - | 0 W/m² | - |
| 1778032885 | 16.11° C | 69% | 1014.5 hPa | 0 mm | - | 0 W/m² | - |
| 1778032583 | 16.11° C | 69% | 1014.5 hPa | 0 mm | - | 0 W/m² | - |
| 1778032280 | 16.67° C | 66% | 1014.6 hPa | 0 mm | - | 0 W/m² | - |
| 1778031978 | 16.67° C | 64% | 1014.8 hPa | 0 mm | - | 0 W/m² | - |
| 1778031672 | 17.22° C | 62% | 1014.6 hPa | 0 mm | - | 0 W/m² | - |
| 1778031371 | 17.22° C | 61% | 1014.8 hPa | 0 mm | - | 0 W/m² | - |
| 1778031068 | 17.22° C | 60% | 1014.5 hPa | 0 mm | - | 0 W/m² | - |
| 1778030764 | 17.78° C | 60% | 1014.6 hPa | 0 mm | - | 0 W/m² | - |
| 1778030460 | 17.78° C | 59% | 1014.6 hPa | 0 mm | - | 0 W/m² | - |
* Rain latest hour (hover to see other rain measurements)
** Current wind speed in m/s (hover to see current wind gust speed)